createdAt,value
2019-03-11T00:00:55.730Z,81.50
2019-03-11T00:03:24.644Z,81.50
2019-03-11T00:05:54.444Z,81.43
2019-03-11T00:08:24.373Z,81.30
2019-03-11T00:10:54.024Z,81.40
2019-03-11T00:13:24.491Z,81.95
2019-03-11T00:15:54.021Z,80.36
2019-03-11T00:18:23.553Z,80.75
2019-03-11T00:20:52.445Z,81.13
2019-03-11T00:23:21.229Z,81.13
2019-03-11T00:25:51.034Z,81.50
2019-03-11T00:28:20.146Z,81.03
2019-03-11T00:30:50.113Z,80.34
2019-03-11T00:33:18.988Z,80.71
2019-03-11T00:35:48.927Z,81.13
2019-03-11T00:38:18.719Z,80.95
2019-03-11T00:40:48.264Z,81.25
2019-03-11T00:43:17.514Z,81.94
2019-03-11T00:45:47.085Z,81.96
2019-03-11T00:48:16.196Z,81.06
2019-03-11T00:50:44.985Z,80.64
2019-03-11T00:53:14.477Z,81.00
2019-03-11T00:55:44.247Z,81.45
2019-03-11T00:58:13.469Z,81.43
2019-03-11T01:00:43.662Z,80.51
2019-03-11T01:03:12.555Z,79.94
2019-03-11T01:05:41.330Z,79.77
2019-03-11T01:08:10.749Z,79.32
2019-03-11T01:10:39.555Z,80.24
2019-03-11T01:13:08.413Z,80.16
2019-03-11T01:15:37.331Z,79.29
2019-03-11T01:18:06.355Z,79.91
2019-03-11T01:20:35.504Z,80.02
2019-03-11T01:23:04.365Z,80.98
2019-03-11T01:25:33.607Z,81.16
2019-03-11T01:28:02.477Z,80.16
2019-03-11T01:30:31.327Z,79.01
2019-03-11T01:33:00.461Z,79.23
2019-03-11T01:35:29.382Z,79.10
2019-03-11T01:37:58.193Z,79.47
2019-03-11T01:40:27.459Z,79.92
2019-03-11T01:42:56.701Z,80.00
2019-03-11T01:45:25.489Z,79.78
2019-03-11T01:47:54.287Z,79.38
2019-03-11T01:50:23.448Z,79.94
2019-03-11T01:52:52.246Z,79.41
2019-03-11T01:55:21.119Z,79.80
2019-03-11T01:57:49.931Z,79.26
2019-03-11T02:00:18.870Z,78.64
2019-03-11T02:02:47.747Z,78.27
2019-03-11T02:07:48.187Z,78.03
2019-03-11T02:10:17.606Z,77.90
2019-03-11T02:12:47.332Z,78.79
2019-03-11T02:15:16.699Z,79.34
2019-03-11T02:17:45.944Z,80.62
2019-03-11T02:20:15.103Z,80.72
2019-03-11T02:22:43.991Z,81.72
2019-03-11T02:25:14.170Z,82.04
2019-03-11T02:27:43.137Z,83.31
2019-03-11T02:30:13.936Z,83.37
2019-03-11T02:32:44.092Z,83.47
2019-03-11T02:35:16.418Z,84.55
2019-03-11T02:37:46.020Z,85.29
2019-03-11T02:40:16.114Z,85.77
2019-03-11T02:42:46.042Z,85.16
2019-03-11T02:45:15.698Z,85.23
2019-03-11T02:47:45.648Z,84.72
2019-03-11T02:50:15.501Z,84.67
2019-03-11T02:52:45.880Z,85.37
2019-03-11T02:55:15.460Z,84.33
2019-03-11T02:57:44.352Z,84.63
2019-03-11T03:00:15.378Z,84.13
2019-03-11T03:02:51.746Z,84.59
2019-03-11T03:05:27.378Z,84.96
2019-03-11T03:07:56.278Z,84.79
2019-03-11T03:10:25.211Z,84.77
2019-03-11T03:12:54.089Z,83.19
2019-03-11T03:15:23.646Z,83.72
2019-03-11T03:17:52.834Z,84.23
2019-03-11T03:20:21.611Z,84.79
2019-03-11T03:22:51.150Z,84.91
2019-03-11T03:25:33.174Z,84.83
2019-03-11T03:27:51.020Z,84.66
2019-03-11T03:30:20.114Z,83.80
2019-03-11T03:32:49.086Z,84.11
2019-03-11T03:35:18.194Z,83.79
2019-03-11T03:37:47.392Z,83.64
2019-03-11T03:40:16.718Z,84.64
2019-03-11T03:42:45.894Z,82.92
2019-03-11T03:45:26.430Z,83.59
2019-03-11T03:47:56.461Z,83.83
2019-03-11T03:50:25.417Z,83.30
2019-03-11T03:52:54.634Z,84.19
2019-03-11T03:55:23.556Z,84.48
2019-03-11T03:57:52.332Z,83.94
2019-03-11T04:00:21.204Z,83.55
2019-03-11T04:02:50.167Z,83.81
2019-03-11T04:05:19.438Z,84.10
2019-03-11T04:07:48.379Z,83.51
2019-03-11T04:10:17.649Z,83.31
2019-03-11T04:12:46.604Z,83.20
2019-03-11T04:15:16.970Z,83.06
2019-03-11T04:17:45.827Z,83.64
2019-03-11T04:20:16.101Z,83.97
2019-03-11T04:22:45.047Z,84.31
2019-03-11T04:25:14.919Z,83.34
2019-03-11T04:27:44.038Z,83.76
2019-03-11T04:30:15.720Z,83.75
2019-03-11T04:32:45.003Z,84.04
2019-03-11T04:35:14.268Z,83.49
2019-03-11T04:37:43.516Z,82.88
2019-03-11T04:40:13.115Z,83.15
2019-03-11T04:42:42.602Z,83.00
2019-03-11T04:45:12.693Z,82.45
2019-03-11T04:47:41.609Z,82.58
2019-03-11T04:50:12.648Z,82.68
2019-03-11T04:52:42.022Z,82.91
2019-03-11T04:55:12.467Z,83.35
2019-03-11T04:57:50.086Z,83.34
2019-03-11T05:00:21.104Z,82.70
2019-03-11T05:02:50.316Z,82.27
2019-03-11T05:05:19.634Z,81.93
2019-03-11T05:07:48.823Z,81.37
2019-03-11T05:10:18.025Z,81.70
2019-03-11T05:12:46.842Z,81.08
2019-03-11T05:15:15.831Z,81.65
2019-03-11T05:17:45.168Z,81.31
2019-03-11T05:20:14.199Z,81.10
2019-03-11T05:22:43.127Z,80.79
2019-03-11T05:25:12.615Z,80.50
2019-03-11T05:27:42.358Z,81.34
2019-03-11T05:30:13.669Z,80.67
2019-03-11T05:32:42.909Z,80.72
2019-03-11T05:35:11.833Z,80.41
2019-03-11T05:37:41.078Z,79.82
2019-03-11T05:40:11.790Z,80.06
2019-03-11T05:42:41.298Z,80.26
2019-03-11T05:45:13.093Z,79.98
2019-03-11T05:47:42.729Z,79.84
2019-03-11T05:50:13.585Z,79.17
2019-03-11T05:52:42.888Z,78.37
2019-03-11T05:55:11.810Z,78.44
2019-03-11T05:57:40.678Z,78.73
2019-03-11T06:00:16.793Z,78.15
2019-03-11T06:02:46.062Z,78.02
2019-03-11T06:05:16.070Z,77.25
2019-03-11T06:07:45.426Z,78.14
2019-03-11T06:10:16.616Z,78.11
2019-03-11T06:12:46.224Z,78.92
2019-03-11T06:15:15.964Z,78.26
2019-03-11T06:17:45.037Z,77.55
2019-03-11T06:20:25.247Z,78.30
2019-03-11T06:22:54.135Z,78.17
2019-03-11T06:25:23.304Z,78.70
2019-03-11T06:27:52.512Z,77.93
2019-03-11T06:30:21.559Z,78.16
2019-03-11T06:32:50.472Z,78.25
2019-03-11T06:35:19.749Z,77.60
2019-03-11T06:37:48.991Z,76.96
2019-03-11T06:40:18.380Z,77.12
2019-03-11T06:42:47.159Z,77.65
2019-03-11T06:45:16.106Z,77.90
2019-03-11T06:47:44.884Z,77.32
2019-03-11T06:50:13.840Z,77.44
2019-03-11T06:52:42.624Z,77.79
2019-03-11T06:55:12.487Z,78.41
2019-03-11T06:57:41.434Z,79.30
2019-03-11T07:00:12.158Z,80.52
2019-03-11T07:02:41.361Z,80.23
2019-03-11T07:05:19.149Z,79.82
2019-03-11T07:07:40.778Z,80.50
2019-03-11T07:10:10.813Z,82.09
2019-03-11T07:12:53.910Z,83.66
2019-03-11T07:15:27.855Z,85.17
2019-03-11T07:17:56.983Z,85.81
2019-03-11T07:20:25.858Z,85.94
2019-03-11T07:22:56.673Z,86.25
2019-03-11T07:25:25.535Z,85.75
2019-03-11T07:27:55.098Z,84.50
2019-03-11T07:30:24.127Z,83.15
2019-03-11T07:32:52.983Z,83.84
2019-03-11T07:35:21.867Z,83.50
2019-03-11T07:37:51.347Z,83.06
2019-03-11T07:40:29.095Z,82.43
2019-03-11T07:42:51.103Z,82.55
2019-03-11T07:45:19.975Z,82.08
2019-03-11T07:47:48.791Z,81.43
2019-03-11T07:50:18.465Z,81.02
2019-03-11T07:52:47.659Z,80.43
2019-03-11T07:55:17.807Z,80.72
2019-03-11T07:57:46.895Z,79.65
2019-03-11T08:00:16.798Z,79.86
2019-03-11T08:02:45.680Z,79.46
2019-03-11T08:05:14.706Z,79.16
2019-03-11T08:07:43.510Z,78.76
2019-03-11T08:10:12.698Z,78.50
2019-03-11T08:12:41.496Z,79.27
2019-03-11T08:15:12.290Z,77.90
2019-03-11T08:17:41.105Z,77.48
2019-03-11T08:20:11.141Z,77.68
2019-03-11T08:22:40.006Z,77.42
2019-03-11T08:25:08.952Z,77.35
2019-03-11T08:27:37.829Z,77.12
2019-03-11T08:30:07.877Z,77.28
2019-03-11T08:32:37.110Z,77.42
2019-03-11T08:35:06.924Z,78.23
2019-03-11T08:37:36.827Z,76.90
2019-03-11T08:40:07.433Z,78.00
2019-03-11T08:42:36.920Z,78.35
2019-03-11T08:45:06.894Z,79.47
2019-03-11T08:47:35.691Z,80.06
2019-03-11T08:50:04.970Z,79.61
2019-03-11T08:52:33.829Z,78.86
2019-03-11T08:55:02.667Z,77.23
2019-03-11T08:57:31.536Z,77.06
2019-03-11T09:00:00.481Z,75.48
2019-03-11T09:02:29.340Z,76.63
2019-03-11T09:04:59.730Z,78.57
2019-03-11T09:07:29.379Z,79.57
2019-03-11T09:09:59.339Z,81.29
2019-03-11T09:12:29.294Z,82.08
2019-03-11T09:14:59.156Z,83.48
2019-03-11T09:17:29.169Z,83.71
2019-03-11T09:20:00.551Z,85.04
2019-03-11T09:22:30.509Z,84.37
2019-03-11T09:25:00.364Z,83.97
2019-03-11T09:27:29.934Z,84.40
2019-03-11T09:29:59.774Z,84.42
2019-03-11T09:32:28.556Z,84.50
2019-03-11T09:34:57.414Z,84.24
2019-03-11T09:37:26.303Z,83.59
2019-03-11T09:39:55.084Z,83.11
2019-03-11T09:42:23.905Z,82.58
2019-03-11T09:44:53.490Z,82.45
2019-03-11T09:47:23.427Z,81.97
2019-03-11T09:49:52.675Z,83.25
2019-03-11T09:52:21.835Z,82.82
2019-03-11T09:54:50.644Z,82.91
2019-03-11T09:57:19.427Z,83.27
2019-03-11T09:59:49.207Z,81.56
2019-03-11T10:02:19.154Z,81.84
2019-03-11T10:04:48.257Z,81.51
2019-03-11T10:07:17.796Z,83.57
2019-03-11T10:09:47.551Z,82.23
2019-03-11T10:12:20.432Z,83.70
2019-03-11T10:14:49.670Z,82.83
2019-03-11T10:17:18.537Z,83.86
2019-03-11T10:19:47.309Z,84.33
2019-03-11T10:22:16.929Z,84.11
2019-03-11T10:24:46.271Z,84.25
2019-03-11T10:27:15.180Z,83.96
2019-03-11T10:29:44.597Z,84.75
2019-03-11T10:32:14.058Z,83.79
2019-03-11T10:34:43.558Z,85.70
2019-03-11T10:37:12.438Z,84.62
2019-03-11T10:39:41.518Z,84.16
2019-03-11T10:42:10.439Z,84.20
2019-03-11T10:44:39.235Z,84.00
2019-03-11T10:47:09.157Z,84.22
2019-03-11T10:49:37.993Z,82.58
2019-03-11T10:52:07.475Z,83.71
2019-03-11T10:54:36.349Z,82.87
2019-03-11T10:57:05.297Z,79.22
2019-03-11T10:59:34.108Z,79.23
2019-03-11T11:02:03.278Z,81.36
2019-03-11T11:04:32.049Z,81.09
2019-03-11T11:07:00.883Z,82.24
2019-03-11T11:09:29.763Z,79.53
2019-03-11T11:11:58.569Z,79.81
2019-03-11T11:14:27.393Z,79.01
2019-03-11T11:16:56.164Z,80.80
2019-03-11T11:19:24.984Z,79.67
2019-03-11T11:21:53.805Z,78.73
2019-03-11T11:24:22.684Z,79.96
2019-03-11T11:26:51.509Z,80.28
2019-03-11T11:29:20.296Z,78.48
2019-03-11T11:31:49.095Z,80.06
2019-03-11T11:34:17.906Z,78.18
2019-03-11T11:36:46.722Z,77.20
2019-03-11T11:39:15.797Z,74.74
2019-03-11T11:41:44.689Z,75.91
2019-03-11T11:44:13.490Z,74.15
2019-03-11T11:46:42.435Z,74.33
2019-03-11T11:49:11.235Z,75.16
2019-03-11T11:51:40.018Z,75.07
2019-03-11T11:54:08.898Z,76.46
2019-03-11T11:56:37.682Z,77.10
2019-03-11T11:59:06.629Z,77.13
2019-03-11T12:01:35.852Z,76.33
2019-03-11T12:04:13.578Z,75.65
2019-03-11T12:06:42.896Z,76.98
2019-03-11T12:09:14.725Z,76.45
2019-03-11T12:11:43.500Z,76.74
2019-03-11T12:14:12.307Z,76.54
2019-03-11T12:16:41.200Z,76.82
2019-03-11T12:19:10.059Z,77.89
2019-03-11T12:21:38.997Z,78.01
2019-03-11T12:24:07.892Z,78.41
2019-03-11T12:26:36.700Z,80.09
2019-03-11T12:29:05.602Z,80.19
2019-03-11T12:31:34.583Z,80.60
2019-03-11T12:34:03.502Z,81.33
2019-03-11T12:36:32.314Z,82.46
2019-03-11T12:39:01.223Z,83.35
2019-03-11T12:41:30.097Z,83.94
2019-03-11T12:43:58.905Z,83.12
2019-03-11T12:46:27.694Z,83.92
2019-03-11T12:48:56.529Z,84.59
2019-03-11T12:51:25.321Z,84.15
2019-03-11T12:53:54.114Z,84.93
2019-03-11T12:56:22.955Z,85.67
2019-03-11T12:58:51.553Z,86.01
2019-03-11T13:01:20.409Z,85.50
2019-03-11T13:03:49.255Z,86.09
2019-03-11T13:06:18.049Z,86.46
2019-03-11T13:08:47.130Z,85.49
2019-03-11T13:11:16.054Z,85.23
2019-03-11T13:13:44.837Z,84.57
2019-03-11T13:16:13.644Z,84.38
2019-03-11T13:18:44.144Z,84.29
2019-03-11T13:21:25.992Z,82.64
2019-03-11T13:23:55.717Z,82.23
2019-03-11T13:26:24.907Z,80.57
2019-03-11T13:28:53.865Z,80.02
2019-03-11T13:31:22.666Z,80.51
2019-03-11T13:33:51.906Z,80.17
2019-03-11T13:36:20.859Z,80.40
2019-03-11T13:38:49.856Z,81.03
2019-03-11T13:41:18.788Z,81.32
2019-03-11T13:43:48.734Z,82.75
2019-03-11T13:46:17.782Z,80.66
2019-03-11T13:48:46.617Z,81.04
2019-03-11T13:51:15.946Z,80.04
2019-03-11T13:53:44.805Z,77.57
2019-03-11T13:56:13.699Z,80.22
2019-03-11T13:58:42.515Z,77.54
2019-03-11T14:01:11.653Z,77.51
2019-03-11T14:03:40.852Z,74.82
2019-03-11T14:06:09.739Z,73.67
2019-03-11T14:08:38.553Z,73.44
2019-03-11T14:11:08.744Z,73.36
2019-03-11T14:13:37.905Z,73.61
2019-03-11T14:16:08.030Z,75.02
2019-03-11T14:18:36.916Z,76.18
2019-03-11T14:21:05.788Z,76.52
2019-03-11T14:23:35.296Z,77.41
2019-03-11T14:26:04.262Z,78.10
2019-03-11T14:28:33.072Z,78.12
2019-03-11T14:31:01.867Z,77.26
2019-03-11T14:33:30.644Z,75.07
2019-03-11T14:36:00.014Z,76.75
2019-03-11T14:38:29.121Z,76.42
2019-03-11T14:40:58.300Z,76.28
2019-03-11T14:43:28.542Z,76.38
2019-03-11T14:45:57.435Z,79.02
2019-03-11T14:48:26.558Z,77.69
2019-03-11T14:50:55.532Z,78.02
2019-03-11T14:53:24.648Z,78.62
2019-03-11T14:55:54.172Z,77.84
2019-03-11T14:58:29.353Z,78.86
2019-03-11T15:00:53.557Z,80.38
2019-03-11T15:03:22.861Z,80.16
2019-03-11T15:05:53.519Z,79.04
2019-03-11T15:08:22.274Z,79.53
2019-03-11T15:10:51.084Z,80.07
2019-03-11T15:13:20.037Z,78.94
2019-03-11T15:15:49.324Z,79.03
2019-03-11T15:18:18.916Z,78.42
2019-03-11T15:20:47.840Z,80.84
2019-03-11T15:23:20.662Z,80.42
2019-03-11T15:25:47.524Z,81.53
2019-03-11T15:28:18.090Z,81.45
2019-03-11T15:30:47.225Z,82.24
2019-03-11T15:33:16.528Z,81.78
2019-03-11T15:35:46.458Z,82.41
2019-03-11T15:38:16.112Z,82.08
2019-03-11T15:40:45.688Z,81.50
2019-03-11T15:43:15.704Z,81.14
2019-03-11T15:45:45.281Z,80.68
2019-03-11T15:48:14.752Z,80.51
2019-03-11T15:50:43.608Z,80.46
2019-03-11T15:53:13.713Z,80.75
2019-03-11T15:55:44.730Z,79.37
2019-03-11T15:58:14.400Z,79.52
2019-03-11T16:00:44.370Z,79.05
2019-03-11T16:03:14.080Z,79.28
2019-03-11T16:05:43.674Z,79.10
2019-03-11T16:08:13.447Z,80.35
2019-03-11T16:10:43.037Z,79.96
2019-03-11T16:13:31.423Z,81.36
2019-03-11T16:16:01.278Z,81.57
2019-03-11T16:18:31.129Z,82.28
2019-03-11T16:21:01.038Z,81.92
2019-03-11T16:23:30.896Z,81.85
2019-03-11T16:26:00.601Z,82.42
2019-03-11T16:28:30.409Z,80.85
2019-03-11T16:31:00.142Z,81.63
2019-03-11T16:33:29.737Z,82.82
2019-03-11T16:35:59.823Z,82.54
2019-03-11T16:38:28.744Z,82.36
2019-03-11T16:40:58.538Z,83.06
2019-03-11T16:43:28.360Z,82.86
2019-03-11T16:45:57.964Z,83.27
2019-03-11T16:48:27.552Z,83.53
2019-03-11T16:50:57.502Z,83.27
2019-03-11T16:53:27.486Z,82.51
2019-03-11T16:55:57.461Z,83.29
2019-03-11T16:58:27.027Z,84.21
2019-03-11T17:00:58.478Z,84.62
2019-03-11T17:03:27.768Z,83.92
2019-03-11T17:05:57.431Z,85.36
2019-03-11T17:08:27.343Z,85.03
2019-03-11T17:10:56.941Z,85.02
2019-03-11T17:13:26.711Z,84.71
2019-03-11T17:15:55.947Z,85.68
2019-03-11T17:18:25.463Z,84.71
2019-03-11T17:20:55.334Z,84.60
2019-03-11T17:23:24.240Z,85.02
2019-03-11T17:25:53.469Z,85.95
2019-03-11T17:28:23.063Z,85.87
2019-03-11T17:30:52.705Z,85.50
2019-03-11T17:33:22.679Z,85.72
2019-03-11T17:35:52.178Z,85.93
2019-03-11T17:38:21.071Z,86.21
2019-03-11T17:40:50.222Z,86.75
2019-03-11T17:43:19.344Z,86.29
2019-03-11T17:45:48.408Z,86.53
2019-03-11T17:48:18.874Z,86.20
2019-03-11T17:50:48.342Z,86.78
2019-03-11T17:53:20.176Z,86.18
2019-03-11T17:55:48.462Z,86.42
2019-03-11T17:58:17.625Z,86.12
2019-03-11T18:00:55.581Z,86.75
2019-03-11T18:03:18.488Z,86.25
2019-03-11T18:05:47.442Z,86.16
2019-03-11T18:08:16.810Z,86.15
2019-03-11T18:10:46.448Z,85.96
2019-03-11T18:13:15.613Z,86.62
2019-03-11T18:15:44.542Z,86.51
2019-03-11T18:18:13.508Z,85.62
2019-03-11T18:20:43.099Z,85.96
2019-03-11T18:23:12.673Z,85.82
2019-03-11T18:25:41.662Z,85.59
2019-03-11T18:28:10.974Z,85.90
2019-03-11T18:30:40.044Z,85.83
2019-03-11T18:33:09.388Z,85.67
2019-03-11T18:35:39.294Z,85.40
2019-03-11T18:38:08.215Z,85.74
2019-03-11T18:40:37.186Z,84.01
2019-03-11T18:43:06.500Z,85.17
2019-03-11T18:45:36.080Z,84.95
2019-03-11T18:48:06.025Z,85.32
2019-03-11T18:50:35.531Z,83.85
2019-03-11T18:53:04.496Z,82.73
2019-03-11T18:55:33.699Z,80.99
2019-03-11T18:58:03.131Z,82.43
2019-03-11T19:00:31.999Z,83.00
2019-03-11T19:03:00.871Z,82.69
2019-03-11T19:05:29.999Z,81.50
2019-03-11T19:07:58.793Z,80.51
2019-03-11T19:10:27.609Z,81.39
2019-03-11T19:12:56.707Z,82.19
2019-03-11T19:15:26.320Z,81.09
2019-03-11T19:17:55.239Z,81.67
2019-03-11T19:20:24.175Z,80.48
2019-03-11T19:22:53.426Z,78.13
2019-03-11T19:25:22.761Z,78.26
2019-03-11T19:27:51.882Z,78.15
2019-03-11T19:30:20.812Z,78.11
2019-03-11T19:32:49.974Z,78.35
2019-03-11T19:35:19.905Z,78.32
2019-03-11T19:37:49.475Z,78.89
2019-03-11T19:40:19.802Z,78.66
2019-03-11T19:42:48.597Z,78.58
2019-03-11T19:45:18.030Z,77.23
2019-03-11T19:47:46.947Z,76.29
2019-03-11T19:50:16.100Z,76.88
2019-03-11T19:52:57.302Z,77.17
2019-03-11T19:55:16.782Z,78.08
2019-03-11T19:57:45.750Z,78.07
2019-03-11T20:00:17.131Z,78.00
2019-03-11T20:02:46.071Z,78.37
2019-03-11T20:05:16.442Z,79.05
2019-03-11T20:07:45.341Z,79.23
2019-03-11T20:10:14.789Z,78.20
2019-03-11T20:12:43.681Z,78.39
2019-03-11T20:15:13.313Z,78.32
2019-03-11T20:17:42.134Z,78.82
2019-03-11T20:20:11.894Z,79.29
2019-03-11T20:22:40.834Z,79.67
2019-03-11T20:25:12.544Z,78.70
2019-03-11T20:27:41.733Z,78.82
2019-03-11T20:30:16.476Z,78.71
2019-03-11T20:32:45.452Z,78.79
2019-03-11T20:35:17.322Z,78.42
2019-03-11T20:37:45.128Z,79.19
2019-03-11T20:40:13.950Z,79.73
2019-03-11T20:42:42.757Z,79.00
2019-03-11T20:45:12.623Z,77.96
2019-03-11T20:47:41.516Z,78.00
2019-03-11T20:50:11.213Z,77.44
2019-03-11T20:52:40.068Z,78.28
2019-03-11T20:55:10.299Z,77.32
2019-03-11T20:57:39.260Z,78.00
2019-03-11T21:00:12.542Z,77.79
2019-03-11T21:02:40.791Z,76.37
2019-03-11T21:05:10.108Z,76.49
2019-03-11T21:07:39.687Z,76.86
2019-03-11T21:10:11.212Z,77.20
2019-03-11T21:12:40.394Z,77.33
2019-03-11T21:15:10.486Z,77.15
2019-03-11T21:17:39.241Z,78.08
2019-03-11T21:20:10.029Z,76.74
2019-03-11T21:22:39.976Z,77.31
2019-03-11T21:25:11.284Z,76.20
2019-03-11T21:27:40.181Z,75.99
2019-03-11T21:30:12.471Z,76.90
2019-03-11T21:32:41.297Z,76.89
2019-03-11T21:35:10.318Z,77.12
2019-03-11T21:37:39.693Z,76.88
2019-03-11T21:40:10.630Z,78.15
2019-03-11T21:42:39.439Z,77.96
2019-03-11T21:45:10.028Z,78.03
2019-03-11T21:47:40.504Z,78.77
2019-03-11T21:50:14.028Z,78.40
2019-03-11T21:52:42.869Z,78.85
2019-03-11T21:55:12.097Z,79.25
2019-03-11T21:57:41.520Z,79.35
2019-03-11T22:00:13.226Z,79.79
2019-03-11T22:02:42.071Z,79.54
2019-03-11T22:05:11.358Z,79.58
2019-03-11T22:07:40.169Z,79.69
2019-03-11T22:10:10.881Z,79.95
2019-03-11T22:12:40.062Z,80.14
2019-03-11T22:15:10.054Z,79.87
2019-03-11T22:17:39.130Z,80.31
2019-03-11T22:20:09.635Z,80.69
2019-03-11T22:22:38.777Z,80.79
2019-03-11T22:25:08.804Z,80.88
2019-03-11T22:27:37.792Z,81.03
2019-03-11T22:30:09.232Z,80.95
2019-03-11T22:32:38.054Z,80.79
2019-03-11T22:35:12.506Z,81.08
2019-03-11T22:37:37.781Z,81.25
2019-03-11T22:40:08.002Z,81.80
2019-03-11T22:42:36.857Z,81.72
2019-03-11T22:45:07.238Z,81.95
2019-03-11T22:47:36.846Z,82.03
2019-03-11T22:50:06.006Z,81.92
2019-03-11T22:52:34.779Z,81.77
2019-03-11T22:55:03.777Z,81.71
2019-03-11T22:57:32.666Z,81.92
2019-03-11T23:00:01.794Z,81.58
2019-03-11T23:02:40.046Z,81.59
2019-03-11T23:05:02.065Z,81.48
2019-03-11T23:07:30.858Z,81.52
2019-03-11T23:09:59.888Z,81.58
2019-03-11T23:12:29.041Z,81.37
2019-03-11T23:14:57.828Z,81.37
2019-03-11T23:17:26.944Z,81.23
2019-03-11T23:19:56.094Z,81.44
2019-03-11T23:22:25.241Z,81.54
2019-03-11T23:24:54.433Z,81.64
2019-03-11T23:27:23.218Z,81.66
2019-03-11T23:29:52.122Z,81.82
2019-03-11T23:32:21.271Z,81.97
2019-03-11T23:34:50.149Z,81.63
2019-03-11T23:37:19.044Z,81.58
2019-03-11T23:39:47.848Z,82.37
2019-03-11T23:42:16.647Z,83.10
2019-03-11T23:44:46.165Z,82.85
2019-03-11T23:47:15.266Z,82.86
2019-03-11T23:49:44.330Z,83.02
2019-03-11T23:52:13.670Z,83.26
2019-03-11T23:54:42.478Z,84.08
2019-03-11T23:57:11.437Z,84.20
2019-03-11T23:59:40.220Z,83.69
